CONC1 YSSY-YMML
Flight info
| Callsign | CONC1 |
|---|---|
| Flight time | 0h 47m |
| Altitude | 40000 |
| Route | WOL H65 LEECE Q29 ML |
| Aircraft | CONC/H-SDE2E3FGHIRWXY/LB1 |
Departure
| Time | 2026-04-23 08:35 |
|---|---|
| Airport | Sydney Kingsford Smith International Airport (YSSY) |
Arrival
| Time | 2026-04-23 09:22 |
|---|---|
| Airport | Melbourne Airport (YMML) |
| Time | Latitude | Longitude | Altitude | Speed | Heading |
|---|---|---|---|---|---|
| 2026-04-23 08:13 | -33.93734 | 151.16935 | 27 ft | 0 kts | 253° |
| 2026-04-23 08:15 | -33.93733 | 151.16935 | 27 ft | 0 kts | 253° |
| 2026-04-23 08:24 | -33.93733 | 151.16936 | 27 ft | 0 kts | 253° |
| 2026-04-23 08:29 | -33.93733 | 151.16938 | 27 ft | 2 kts | 253° |
| 2026-04-23 08:30 | -33.93728 | 151.16957 | 27 ft | 2 kts | 271° |
| 2026-04-23 08:30 | -33.93721 | 151.16971 | 27 ft | 6 kts | 255° |
| 2026-04-23 08:30 | -33.93729 | 151.17032 | 27 ft | 8 kts | 320° |
| 2026-04-23 08:30 | -33.93775 | 151.17054 | 27 ft | 0 kts | 348° |
| 2026-04-23 08:31 | -33.93775 | 151.17053 | 27 ft | 0 kts | 348° |
| 2026-04-23 08:31 | -33.93753 | 151.17053 | 27 ft | 7 kts | 359° |
| 2026-04-23 08:31 | -33.93708 | 151.17096 | 27 ft | 11 kts | 61° |
| 2026-04-23 08:32 | -33.93653 | 151.17138 | 27 ft | 15 kts | 4° |
| 2026-04-23 08:32 | -33.93556 | 151.17116 | 27 ft | 14 kts | 347° |
| 2026-04-23 08:32 | -33.93434 | 151.17083 | 27 ft | 20 kts | 348° |
| 2026-04-23 08:32 | -33.93315 | 151.17029 | 27 ft | 18 kts | 322° |
| 2026-04-23 08:33 | -33.93210 | 151.16950 | 27 ft | 17 kts | 346° |
| 2026-04-23 08:33 | -33.93113 | 151.16924 | 27 ft | 12 kts | 348° |
| 2026-04-23 08:33 | -33.93038 | 151.16912 | 27 ft | 11 kts | 0° |
| 2026-04-23 08:33 | -33.92976 | 151.16988 | 25 ft | 18 kts | 73° |
| 2026-04-23 08:34 | -33.92965 | 151.17124 | 26 ft | 14 kts | 101° |
| 2026-04-23 08:34 | -33.93060 | 151.17193 | 27 ft | 37 kts | 165° |
| 2026-04-23 08:34 | -33.93611 | 151.17335 | 22 ft | 125 kts | 168° |
| 2026-04-23 08:34 | -33.94722 | 151.17625 | 119 ft | 196 kts | 167° |
| 2026-04-23 08:35 | -33.96043 | 151.17944 | 792 ft | 200 kts | 172° |
| 2026-04-23 08:35 | -33.97552 | 151.18047 | 1577 ft | 237 kts | 179° |
| 2026-04-23 08:35 | -33.99263 | 151.17937 | 2352 ft | 246 kts | 183° |
| 2026-04-23 08:35 | -34.00979 | 151.17800 | 3121 ft | 250 kts | 177° |
| 2026-04-23 08:36 | -34.02724 | 151.17902 | 3879 ft | 252 kts | 172° |
| 2026-04-23 08:36 | -34.04475 | 151.18166 | 4652 ft | 256 kts | 171° |
| 2026-04-23 08:36 | -34.06321 | 151.17906 | 5470 ft | 296 kts | 204° |
| 2026-04-23 08:36 | -34.08214 | 151.16480 | 6113 ft | 356 kts | 215° |
| 2026-04-23 08:37 | -34.10379 | 151.14525 | 6954 ft | 421 kts | 216° |
| 2026-04-23 08:37 | -34.12788 | 151.12307 | 7722 ft | 439 kts | 216° |
| 2026-04-23 08:37 | -34.15208 | 151.10063 | 8489 ft | 441 kts | 216° |
| 2026-04-23 08:37 | -34.17675 | 151.07817 | 9266 ft | 447 kts | 213° |
| 2026-04-23 08:38 | -34.20279 | 151.05740 | 10049 ft | 450 kts | 211° |
| 2026-04-23 08:38 | -34.22947 | 151.03735 | 10791 ft | 455 kts | 210° |
| 2026-04-23 08:38 | -34.25660 | 151.01722 | 11523 ft | 459 kts | 210° |
| 2026-04-23 08:38 | -34.28394 | 150.99689 | 12267 ft | 463 kts | 210° |
| 2026-04-23 08:39 | -34.31146 | 150.97632 | 13026 ft | 468 kts | 210° |
| 2026-04-23 08:39 | -34.33926 | 150.95549 | 13812 ft | 473 kts | 210° |
| 2026-04-23 08:39 | -34.36733 | 150.93443 | 14566 ft | 477 kts | 210° |
| 2026-04-23 08:39 | -34.39570 | 150.91314 | 15292 ft | 482 kts | 210° |
| 2026-04-23 08:40 | -34.42433 | 150.89164 | 16030 ft | 485 kts | 210° |
| 2026-04-23 08:40 | -34.45279 | 150.87023 | 16787 ft | 488 kts | 210° |
| 2026-04-23 08:40 | -34.48212 | 150.84816 | 17563 ft | 492 kts | 210° |
| 2026-04-23 08:40 | -34.51110 | 150.82632 | 18363 ft | 494 kts | 210° |
| 2026-04-23 08:41 | -34.54053 | 150.80414 | 19111 ft | 500 kts | 211° |
| 2026-04-23 08:41 | -34.56771 | 150.77771 | 19862 ft | 507 kts | 227° |
| 2026-04-23 08:41 | -34.58888 | 150.74307 | 20629 ft | 516 kts | 235° |
| 2026-04-23 08:41 | -34.60894 | 150.70666 | 21402 ft | 520 kts | 233° |
| 2026-04-23 08:42 | -34.63011 | 150.67086 | 22178 ft | 524 kts | 232° |
| 2026-04-23 08:42 | -34.65182 | 150.63496 | 22984 ft | 529 kts | 232° |
| 2026-04-23 08:42 | -34.67372 | 150.59878 | 23798 ft | 535 kts | 232° |
| 2026-04-23 08:42 | -34.69584 | 150.56208 | 24539 ft | 540 kts | 232° |
| 2026-04-23 08:43 | -34.71811 | 150.52502 | 25252 ft | 546 kts | 233° |
| 2026-04-23 08:43 | -34.74032 | 150.48799 | 25982 ft | 551 kts | 233° |
| 2026-04-23 08:43 | -34.76301 | 150.45011 | 26734 ft | 559 kts | 233° |
| 2026-04-23 08:43 | -34.78598 | 150.41172 | 27502 ft | 563 kts | 233° |
| 2026-04-23 08:44 | -34.80915 | 150.37297 | 28308 ft | 570 kts | 233° |
| 2026-04-23 08:44 | -34.83259 | 150.33371 | 29108 ft | 576 kts | 233° |
| 2026-04-23 08:44 | -34.85626 | 150.29402 | 29942 ft | 582 kts | 233° |
| 2026-04-23 08:44 | -34.88019 | 150.25384 | 30752 ft | 590 kts | 233° |
| 2026-04-23 08:45 | -34.90439 | 150.21316 | 31527 ft | 596 kts | 233° |
| 2026-04-23 08:45 | -34.92881 | 150.17206 | 32320 ft | 601 kts | 233° |
| 2026-04-23 08:45 | -34.95339 | 150.13065 | 33126 ft | 606 kts | 232° |
| 2026-04-23 08:45 | -34.97814 | 150.08892 | 33946 ft | 611 kts | 232° |
| 2026-04-23 08:46 | -35.00323 | 150.04656 | 34744 ft | 618 kts | 232° |
| 2026-04-23 08:46 | -35.02858 | 150.00371 | 35465 ft | 625 kts | 232° |
| 2026-04-23 08:46 | -35.05412 | 149.96052 | 36212 ft | 631 kts | 232° |
| 2026-04-23 08:46 | -35.07962 | 149.91724 | 36972 ft | 639 kts | 232° |
| 2026-04-23 08:47 | -35.10569 | 149.87295 | 37770 ft | 646 kts | 232° |
| 2026-04-23 08:47 | -35.13220 | 149.82789 | 38613 ft | 661 kts | 232° |
| 2026-04-23 08:47 | -35.15939 | 149.78161 | 39369 ft | 680 kts | 232° |
| 2026-04-23 08:47 | -35.18740 | 149.73386 | 39726 ft | 705 kts | 232° |
| 2026-04-23 08:48 | -35.21653 | 149.68411 | 39891 ft | 733 kts | 232° |
| 2026-04-23 08:48 | -35.24675 | 149.63242 | 39974 ft | 762 kts | 232° |
| 2026-04-23 08:48 | -35.27819 | 149.57857 | 40001 ft | 793 kts | 232° |
| 2026-04-23 08:48 | -35.31091 | 149.52245 | 40020 ft | 825 kts | 232° |
| 2026-04-23 08:49 | -35.34378 | 149.46591 | 40013 ft | 806 kts | 232° |
| 2026-04-23 08:49 | -35.37621 | 149.41015 | 40016 ft | 802 kts | 232° |
| 2026-04-23 08:49 | -35.40865 | 149.35426 | 40248 ft | 803 kts | 232° |
| 2026-04-23 08:49 | -35.44100 | 149.29844 | 40364 ft | 803 kts | 232° |
| 2026-04-23 08:50 | -35.50582 | 149.18628 | 40430 ft | 806 kts | 232° |
| 2026-04-23 08:50 | -35.57021 | 149.07451 | 40437 ft | 807 kts | 232° |
| 2026-04-23 08:51 | -35.63503 | 148.96163 | 40437 ft | 810 kts | 232° |
| 2026-04-23 08:51 | -35.69989 | 148.84831 | 40438 ft | 810 kts | 232° |
| 2026-04-23 08:52 | -35.76473 | 148.73466 | 40443 ft | 811 kts | 232° |
| 2026-04-23 08:52 | -35.82946 | 148.62082 | 40436 ft | 816 kts | 233° |
| 2026-04-23 08:53 | -35.89412 | 148.50673 | 40436 ft | 811 kts | 233° |
| 2026-04-23 08:53 | -35.95878 | 148.39226 | 40424 ft | 812 kts | 233° |
| 2026-04-23 08:54 | -36.02324 | 148.27778 | 40436 ft | 812 kts | 233° |
| 2026-04-23 08:54 | -36.08750 | 148.16326 | 40418 ft | 810 kts | 233° |
| 2026-04-23 08:55 | -36.15129 | 148.04930 | 40397 ft | 811 kts | 233° |
| 2026-04-23 08:55 | -36.21548 | 147.93429 | 40395 ft | 811 kts | 233° |
| 2026-04-23 08:56 | -36.27943 | 147.81934 | 40388 ft | 810 kts | 233° |
| 2026-04-23 08:56 | -36.34281 | 147.70497 | 39787 ft | 781 kts | 233° |
| 2026-04-23 08:57 | -36.37271 | 147.65065 | 39046 ft | 743 kts | 232° |
| 2026-04-23 08:57 | -36.40114 | 147.59909 | 38160 ft | 706 kts | 232° |
| 2026-04-23 08:57 | -36.42815 | 147.55002 | 37322 ft | 670 kts | 232° |
| 2026-04-23 08:57 | -36.45374 | 147.50343 | 36513 ft | 636 kts | 232° |
| 2026-04-23 08:58 | -36.47831 | 147.45871 | 35732 ft | 620 kts | 231° |
| 2026-04-23 08:58 | -36.50245 | 147.41471 | 34979 ft | 614 kts | 231° |
| 2026-04-23 08:58 | -36.52635 | 147.37102 | 34250 ft | 608 kts | 231° |
| 2026-04-23 08:58 | -36.55004 | 147.32767 | 33432 ft | 603 kts | 232° |
| 2026-04-23 08:59 | -36.57347 | 147.28471 | 32664 ft | 598 kts | 232° |
| 2026-04-23 08:59 | -36.59670 | 147.24208 | 31895 ft | 592 kts | 232° |
| 2026-04-23 08:59 | -36.61968 | 147.19986 | 31142 ft | 587 kts | 232° |
| 2026-04-23 08:59 | -36.64243 | 147.15803 | 30399 ft | 580 kts | 232° |
| 2026-04-23 09:00 | -36.66487 | 147.11669 | 29521 ft | 573 kts | 233° |
| 2026-04-23 09:00 | -36.68709 | 147.07574 | 28684 ft | 568 kts | 233° |
| 2026-04-23 09:00 | -36.70916 | 147.03500 | 27906 ft | 566 kts | 233° |
| 2026-04-23 09:00 | -36.73118 | 146.99431 | 27151 ft | 564 kts | 233° |
| 2026-04-23 09:01 | -36.75303 | 146.95387 | 26402 ft | 561 kts | 233° |
| 2026-04-23 09:01 | -36.77438 | 146.91429 | 25871 ft | 554 kts | 233° |
| 2026-04-23 09:01 | -36.79585 | 146.87447 | 25626 ft | 550 kts | 233° |
| 2026-04-23 09:01 | -36.81718 | 146.83487 | 25507 ft | 549 kts | 233° |
| 2026-04-23 09:02 | -36.83846 | 146.79532 | 25452 ft | 548 kts | 233° |
| 2026-04-23 09:02 | -36.85973 | 146.75573 | 25434 ft | 549 kts | 234° |
| 2026-04-23 09:02 | -36.88098 | 146.71614 | 25415 ft | 549 kts | 234° |
| 2026-04-23 09:02 | -36.90230 | 146.67635 | 25411 ft | 549 kts | 234° |
| 2026-04-23 09:03 | -36.92357 | 146.63663 | 25411 ft | 551 kts | 234° |
| 2026-04-23 09:03 | -36.94484 | 146.59684 | 25409 ft | 551 kts | 234° |
| 2026-04-23 09:03 | -36.96610 | 146.55702 | 25404 ft | 551 kts | 234° |
| 2026-04-23 09:03 | -36.98738 | 146.51716 | 25398 ft | 550 kts | 234° |
| 2026-04-23 09:04 | -37.00865 | 146.47724 | 25399 ft | 551 kts | 234° |
| 2026-04-23 09:04 | -37.02964 | 146.43781 | 25389 ft | 552 kts | 234° |
| 2026-04-23 09:04 | -37.05090 | 146.39780 | 25393 ft | 552 kts | 234° |
| 2026-04-23 09:04 | -37.07218 | 146.35771 | 25266 ft | 554 kts | 234° |
| 2026-04-23 09:05 | -37.09363 | 146.31728 | 24533 ft | 556 kts | 234° |
| 2026-04-23 09:05 | -37.11490 | 146.27713 | 23807 ft | 550 kts | 235° |
| 2026-04-23 09:05 | -37.13603 | 146.23718 | 22979 ft | 546 kts | 235° |
| 2026-04-23 09:05 | -37.15688 | 146.19772 | 22225 ft | 539 kts | 235° |
| 2026-04-23 09:06 | -37.17742 | 146.15879 | 21625 ft | 533 kts | 235° |
| 2026-04-23 09:06 | -37.19782 | 146.12009 | 21039 ft | 532 kts | 235° |
| 2026-04-23 09:06 | -37.21810 | 146.08159 | 20633 ft | 525 kts | 235° |
| 2026-04-23 09:06 | -37.23822 | 146.04333 | 20075 ft | 526 kts | 236° |
| 2026-04-23 09:07 | -37.25826 | 146.00520 | 19327 ft | 519 kts | 236° |
| 2026-04-23 09:07 | -37.27804 | 145.96749 | 18598 ft | 515 kts | 236° |
| 2026-04-23 09:07 | -37.29737 | 145.93049 | 17807 ft | 510 kts | 236° |
| 2026-04-23 09:07 | -37.31686 | 145.89341 | 17027 ft | 505 kts | 236° |
| 2026-04-23 09:08 | -37.33619 | 145.85668 | 16277 ft | 502 kts | 236° |
| 2026-04-23 09:08 | -37.35539 | 145.82011 | 15524 ft | 497 kts | 236° |
| 2026-04-23 09:08 | -37.37418 | 145.78423 | 14788 ft | 484 kts | 236° |
| 2026-04-23 09:08 | -37.39232 | 145.74957 | 14063 ft | 465 kts | 236° |
| 2026-04-23 09:09 | -37.40977 | 145.71621 | 13268 ft | 449 kts | 236° |
| 2026-04-23 09:09 | -37.42667 | 145.68385 | 12491 ft | 436 kts | 237° |
| 2026-04-23 09:09 | -37.43942 | 145.64995 | 11750 ft | 425 kts | 255° |
| 2026-04-23 09:09 | -37.44536 | 145.61401 | 11031 ft | 415 kts | 261° |
| 2026-04-23 09:10 | -37.44903 | 145.57832 | 10298 ft | 408 kts | 266° |
| 2026-04-23 09:10 | -37.44944 | 145.50927 | 9561 ft | 377 kts | 271° |
| 2026-04-23 09:10 | -37.44900 | 145.47755 | 9461 ft | 358 kts | 271° |
| 2026-04-23 09:11 | -37.45038 | 145.44709 | 9417 ft | 340 kts | 253° |
| 2026-04-23 09:11 | -37.46107 | 145.42189 | 9431 ft | 321 kts | 224° |
| 2026-04-23 09:11 | -37.47644 | 145.40249 | 9410 ft | 306 kts | 232° |
| 2026-04-23 09:11 | -37.48823 | 145.38083 | 9408 ft | 295 kts | 237° |
| 2026-04-23 09:12 | -37.49894 | 145.35860 | 9303 ft | 300 kts | 243° |
| 2026-04-23 09:12 | -37.50392 | 145.33277 | 8508 ft | 313 kts | 274° |
| 2026-04-23 09:12 | -37.50304 | 145.30504 | 7796 ft | 323 kts | 261° |
| 2026-04-23 09:12 | -37.51131 | 145.27877 | 7131 ft | 329 kts | 231° |
| 2026-04-23 09:13 | -37.52742 | 145.25800 | 6440 ft | 335 kts | 220° |
| 2026-04-23 09:13 | -37.54534 | 145.23904 | 5872 ft | 336 kts | 218° |
| 2026-04-23 09:13 | -37.56340 | 145.22085 | 5607 ft | 327 kts | 217° |
| 2026-04-23 09:13 | -37.58078 | 145.20364 | 5481 ft | 315 kts | 217° |
| 2026-04-23 09:14 | -37.59771 | 145.18699 | 5414 ft | 304 kts | 217° |
| 2026-04-23 09:14 | -37.61402 | 145.17095 | 5391 ft | 290 kts | 217° |
| 2026-04-23 09:14 | -37.62963 | 145.15559 | 5373 ft | 280 kts | 217° |
| 2026-04-23 09:14 | -37.64506 | 145.14040 | 5383 ft | 282 kts | 217° |
| 2026-04-23 09:15 | -37.66050 | 145.12519 | 5378 ft | 280 kts | 217° |
| 2026-04-23 09:15 | -37.67591 | 145.11002 | 5380 ft | 281 kts | 217° |
| 2026-04-23 09:15 | -37.69134 | 145.09484 | 5385 ft | 281 kts | 217° |
| 2026-04-23 09:15 | -37.70152 | 145.08483 | 5381 ft | 280 kts | 217° |
| 2026-04-23 09:16 | -37.72208 | 145.06463 | 5386 ft | 280 kts | 217° |
| 2026-04-23 09:16 | -37.73727 | 145.04970 | 5378 ft | 280 kts | 217° |
| 2026-04-23 09:16 | -37.75265 | 145.03456 | 5379 ft | 280 kts | 217° |
| 2026-04-23 09:16 | -37.76802 | 145.01945 | 5378 ft | 280 kts | 217° |
| 2026-04-23 09:17 | -37.77874 | 145.00991 | 5382 ft | 280 kts | 208° |
| 2026-04-23 09:17 | -37.79600 | 144.99854 | 5379 ft | 279 kts | 204° |
| 2026-04-23 09:17 | -37.81809 | 144.98197 | 5078 ft | 288 kts | 228° |
| 2026-04-23 09:17 | -37.82546 | 144.96778 | 4585 ft | 298 kts | 249° |
| 2026-04-23 09:18 | -37.83113 | 144.94213 | 3878 ft | 308 kts | 258° |
| 2026-04-23 09:18 | -37.83507 | 144.91511 | 3330 ft | 313 kts | 261° |
| 2026-04-23 09:18 | -37.83843 | 144.88827 | 3087 ft | 306 kts | 262° |
| 2026-04-23 09:18 | -37.83847 | 144.86204 | 2981 ft | 292 kts | 288° |
| 2026-04-23 09:19 | -37.82720 | 144.84269 | 2979 ft | 270 kts | 335° |
| 2026-04-23 09:19 | -37.80948 | 144.83859 | 2750 ft | 259 kts | 10° |
| 2026-04-23 09:19 | -37.79238 | 144.84356 | 2574 ft | 245 kts | 15° |
| 2026-04-23 09:19 | -37.77617 | 144.84797 | 2469 ft | 229 kts | 11° |
| 2026-04-23 09:20 | -37.76099 | 144.85053 | 2267 ft | 216 kts | 5° |
| 2026-04-23 09:20 | -37.74640 | 144.85113 | 1915 ft | 205 kts | 359° |
| 2026-04-23 09:20 | -37.73257 | 144.84970 | 1534 ft | 199 kts | 354° |
| 2026-04-23 09:20 | -37.71917 | 144.84721 | 1284 ft | 189 kts | 353° |
| 2026-04-23 09:21 | -37.70643 | 144.84494 | 939 ft | 185 kts | 352° |
| 2026-04-23 09:21 | -37.69414 | 144.84237 | 699 ft | 174 kts | 355° |
| 2026-04-23 09:21 | -37.68235 | 144.84039 | 400 ft | 166 kts | 354° |
| 2026-04-23 09:21 | -37.67174 | 144.83833 | 397 ft | 129 kts | 349° |
| 2026-04-23 09:22 | -37.66678 | 144.83745 | 410 ft | 22 kts | 352° |
| 2026-04-23 09:22 | -37.66514 | 144.83844 | 413 ft | 19 kts | 77° |
| 2026-04-23 09:22 | -37.66510 | 144.83895 | 413 ft | 0 kts | 86° |
| 2026-04-23 09:23 | -37.66519 | 144.83916 | 409 ft | 11 kts | 117° |
| 2026-04-23 09:23 | -37.66688 | 144.83971 | 408 ft | 23 kts | 158° |
| 2026-04-23 09:23 | -37.66709 | 144.84120 | 409 ft | 17 kts | 82° |
| 2026-04-23 09:23 | -37.66693 | 144.84245 | 412 ft | 14 kts | 81° |
| 2026-04-23 09:24 | -37.66678 | 144.84379 | 414 ft | 20 kts | 83° |
| 2026-04-23 09:24 | -37.66647 | 144.84496 | 413 ft | 8 kts | 41° |
| 2026-04-23 09:24 | -37.66609 | 144.84493 | 414 ft | 6 kts | 350° |
| 2026-04-23 09:24 | -37.66568 | 144.84484 | 416 ft | 5 kts | 351° |
| 2026-04-23 09:25 | -37.66567 | 144.84484 | 416 ft | 0 kts | 351° |